Time;durP1;ratioP1;P1;durP2;ratioP2;P2;SDS_P1;SDS_P2;PMS_P1;PMS_P2;Temp;Humidity;BMP_temperature;BMP_pressure;BME280_temperature;BME280_humidity;BME280_pressure;Samples;Min_cycle;Max_cycle;Signal;HPM_P1;HPM_P2
2023/01/31 00:01:25;;;;;;;21.40;7.43;;;6.00;99.90;;;;;;6215504;23;20145;-74
2023/01/31 00:03:56;;;;;;;20.77;6.87;;;6.20;99.90;;;;;;6216476;23;20157;-74
2023/01/31 00:06:26;;;;;;;29.17;7.57;;;6.20;99.90;;;;;;6216070;23;20218;-74
2023/01/31 00:08:52;;;;;;;25.27;7.00;;;6.10;99.90;;;;;;6216020;23;20538;-73
2023/01/31 00:11:20;;;;;;;23.23;6.47;;;6.00;99.90;;;;;;6216369;23;20137;-74
2023/01/31 00:13:46;;;;;;;26.17;6.47;;;5.90;99.90;;;;;;6216707;23;20135;-74
2023/01/31 00:16:13;;;;;;;19.93;6.73;;;5.90;99.90;;;;;;6216692;23;20190;-74
2023/01/31 00:18:43;;;;;;;25.20;7.90;;;6.10;99.90;;;;;;6216478;23;20196;-74
2023/01/31 00:21:19;;;;;;;25.13;7.57;;;6.00;99.90;;;;;;6216436;23;20133;-74
2023/01/31 00:23:47;;;;;;;27.20;6.57;;;5.90;99.90;;;;;;6217509;23;20534;-74
2023/01/31 00:26:16;;;;;;;18.37;6.60;;;6.10;99.90;;;;;;6216368;23;20256;-74
2023/01/31 00:28:44;;;;;;;21.27;6.83;;;6.00;99.90;;;;;;6216538;23;20467;-74
2023/01/31 00:31:11;;;;;;;23.47;7.20;;;5.80;99.90;;;;;;6214633;23;20140;-73
2023/01/31 00:33:39;;;;;;;22.80;6.80;;;5.70;99.90;;;;;;6216211;23;20464;-73
2023/01/31 00:36:13;;;;;;;23.90;7.10;;;5.60;99.90;;;;;;6214376;23;20487;-73
2023/01/31 00:38:41;;;;;;;25.53;8.93;;;5.70;99.90;;;;;;6214482;23;20176;-72
2023/01/31 00:41:07;;;;;;;27.63;9.20;;;5.70;99.90;;;;;;6214864;23;20147;-73
2023/01/31 00:43:33;;;;;;;20.13;7.03;;;5.70;99.90;;;;;;6215970;23;20192;-73
2023/01/31 00:45:59;;;;;;;21.83;6.77;;;5.70;99.90;;;;;;6216198;23;20202;-73
2023/01/31 00:48:26;;;;;;;23.80;8.30;;;5.90;99.90;;;;;;6214730;23;20153;-72
2023/01/31 00:50:51;;;;;;;20.13;7.10;;;5.90;99.90;;;;;;6214323;23;20494;-72
2023/01/31 00:53:22;;;;;;;21.77;7.70;;;5.90;99.90;;;;;;6216182;23;20195;-73
2023/01/31 00:55:51;;;;;;;24.47;7.43;;;5.60;99.90;;;;;;6216099;23;20189;-72
2023/01/31 00:58:18;;;;;;;27.47;8.03;;;5.50;99.90;;;;;;6213300;23;20474;-73
2023/01/31 01:00:45;;;;;;;22.83;6.77;;;5.60;99.90;;;;;;6214369;23;20537;-73
2023/01/31 01:03:13;;;;;;;20.13;6.80;;;5.50;99.90;;;;;;6214404;23;20182;-73
2023/01/31 01:05:38;;;;;;;21.63;6.67;;;5.70;99.90;;;;;;6214443;23;20269;-72
2023/01/31 01:08:04;;;;;;;20.23;6.17;;;5.80;99.90;;;;;;6216034;23;20158;-73
2023/01/31 01:10:29;;;;;;;27.37;6.80;;;5.90;99.90;;;;;;6215842;23;20254;-74
2023/01/31 01:12:55;;;;;;;14.07;6.13;;;5.40;99.90;;;;;;6215833;23;20459;-73
2023/01/31 01:15:21;;;;;;;23.87;6.57;;;5.50;99.90;;;;;;6214330;23;20145;-73
2023/01/31 01:17:47;;;;;;;25.53;7.07;;;5.70;99.90;;;;;;6215633;23;20582;-72
2023/01/31 01:20:13;;;;;;;24.60;6.13;;;5.70;99.90;;;;;;6213977;23;20150;-72
2023/01/31 01:22:41;;;;;;;20.77;6.80;;;5.70;99.90;;;;;;6216178;23;20634;-73
2023/01/31 01:25:08;;;;;;;20.23;6.73;;;5.50;99.90;;;;;;6215620;23;20168;-73
2023/01/31 01:27:33;;;;;;;21.40;6.50;;;5.40;99.90;;;;;;6214129;23;20591;-74
2023/01/31 01:30:00;;;;;;;24.27;6.43;;;5.20;99.90;;;;;;6215881;23;20129;-73
2023/01/31 01:32:27;;;;;;;20.63;6.87;;;5.10;99.90;;;;;;6215629;23;20194;-74
2023/01/31 01:34:52;;;;;;;23.30;7.17;;;5.10;99.90;;;;;;6213981;23;20148;-73
2023/01/31 01:37:21;;;;;;;20.80;6.63;;;5.10;99.90;;;;;;6213584;23;20176;-73
2023/01/31 01:39:51;;;;;;;18.60;7.07;;;5.20;99.90;;;;;;6215531;23;20133;-73
2023/01/31 01:42:20;;;;;;;19.67;7.00;;;5.20;99.90;;;;;;6215841;23;20136;-73
2023/01/31 01:44:59;;;;;;;20.87;7.20;;;5.20;99.90;;;;;;6215288;23;20136;-73
2023/01/31 01:47:31;;;;;;;17.43;7.00;;;5.20;99.90;;;;;;6215132;23;20132;-73
2023/01/31 01:50:22;;;;;;;24.27;8.93;;;5.20;99.90;;;;;;6215463;23;20139;-73
2023/01/31 01:53:21;;;;;;;19.90;6.50;;;5.20;99.90;;;;;;6207658;23;20516;-73
2023/01/31 01:55:58;;;;;;;22.90;7.37;;;5.30;99.90;;;;;;6215428;23;20230;-73
2023/01/31 01:58:31;;;;;;;20.73;7.20;;;5.40;99.90;;;;;;6215256;23;20622;-73
2023/01/31 02:01:01;;;;;;;17.57;7.10;;;5.30;99.90;;;;;;6215161;23;20136;-73
2023/01/31 02:03:27;;;;;;;22.17;8.30;;;5.20;99.90;;;;;;6215267;23;20144;-73
2023/01/31 02:05:57;;;;;;;18.77;6.80;;;5.10;99.90;;;;;;6215117;23;20248;-73
2023/01/31 02:08:25;;;;;;;23.90;7.97;;;5.40;99.90;;;;;;6213436;23;20678;-73
2023/01/31 02:11:12;;;;;;;21.83;7.43;;;5.30;99.90;;;;;;6214987;23;20285;-73
2023/01/31 02:13:40;;;;;;;23.80;8.63;;;5.20;99.90;;;;;;6213525;23;20148;-73
2023/01/31 02:16:07;;;;;;;27.47;8.67;;;5.20;99.90;;;;;;6215056;23;20136;-73
2023/01/31 02:18:33;;;;;;;20.47;7.07;;;5.20;99.90;;;;;;6215283;23;20136;-72
2023/01/31 02:21:23;;;;;;;20.83;7.90;;;5.20;99.90;;;;;;6215001;23;20159;-73
2023/01/31 02:24:26;;;;;;;18.33;7.23;;;5.10;99.90;;;;;;6213842;23;20162;-74
2023/01/31 02:27:03;;;;;;;18.97;7.97;;;5.10;99.90;;;;;;6214804;23;20249;-74
2023/01/31 02:29:48;;;;;;;22.20;7.77;;;5.00;99.90;;;;;;6215103;23;20143;-73
2023/01/31 02:32:13;;;;;;;22.77;7.60;;;5.20;99.90;;;;;;6214784;23;20175;-73
2023/01/31 02:34:45;;;;;;;25.10;8.43;;;4.90;99.90;;;;;;6213437;23;20564;-74
2023/01/31 02:37:25;;;;;;;18.33;6.43;;;4.70;99.90;;;;;;6213040;23;20155;-73
2023/01/31 02:40:03;;;;;;;26.37;8.60;;;4.60;99.90;;;;;;6213481;23;20197;-73
2023/01/31 02:42:52;;;;;;;20.97;8.97;;;4.80;99.90;;;;;;6214768;23;20594;-73
2023/01/31 02:45:35;;;;;;;21.30;7.93;;;4.90;99.90;;;;;;6214389;23;20165;-73
2023/01/31 02:48:04;;;;;;;23.07;8.87;;;4.90;99.90;;;;;;6214772;23;20651;-73
2023/01/31 02:50:39;;;;;;;24.00;7.77;;;4.90;99.90;;;;;;6214909;23;20576;-73
2023/01/31 02:53:23;;;;;;;16.47;7.07;;;4.90;99.90;;;;;;6213485;23;20487;-73
2023/01/31 02:56:19;;;;;;;17.13;7.53;;;5.00;99.90;;;;;;6213206;23;20148;-73
2023/01/31 02:58:51;;;;;;;23.83;8.07;;;4.90;99.90;;;;;;6214480;23;20140;-73
2023/01/31 03:01:23;;;;;;;21.17;7.53;;;4.70;99.90;;;;;;6214421;23;20138;-73
2023/01/31 03:03:49;;;;;;;19.40;8.27;;;4.80;99.90;;;;;;6212634;23;20582;-74
2023/01/31 03:06:22;;;;;;;23.40;7.73;;;5.00;99.90;;;;;;6214615;23;20211;-74
2023/01/31 03:08:52;;;;;;;19.20;8.33;;;5.10;99.90;;;;;;6215320;23;20154;-74
2023/01/31 03:11:21;;;;;;;23.20;8.13;;;5.10;99.90;;;;;;6213136;23;20242;-74
2023/01/31 03:14:19;;;;;;;22.40;7.23;;;5.00;99.90;;;;;;6214735;23;20129;-74
2023/01/31 03:19:54;;;;;;;20.23;7.30;;;4.80;99.90;;;;;;6214611;23;20188;-74
2023/01/31 03:22:26;;;;;;;20.50;7.60;;;4.60;99.90;;;;;;6214887;23;20164;-73
2023/01/31 03:24:52;;;;;;;23.80;7.60;;;4.50;99.90;;;;;;6214682;23;20133;-73
2023/01/31 03:27:20;;;;;;;24.73;7.73;;;4.50;99.90;;;;;;6214658;23;20573;-73
2023/01/31 03:29:46;;;;;;;20.30;7.83;;;4.60;99.90;;;;;;6214330;23;20650;-73
2023/01/31 03:32:26;;;;;;;22.10;7.57;;;4.50;99.90;;;;;;6213021;23;20585;-73
2023/01/31 03:34:52;;;;;;;22.83;7.83;;;4.50;99.90;;;;;;6213199;23;20140;-73
2023/01/31 03:37:55;;;;;;;21.07;7.77;;;4.30;99.90;;;;;;6214730;23;20132;-72
2023/01/31 03:40:53;;;;;;;24.83;8.27;;;4.30;99.90;;;;;;6213790;23;20610;-73
2023/01/31 03:43:40;;;;;;;21.33;9.00;;;4.50;99.90;;;;;;6231859;23;20152;-73
2023/01/31 03:46:15;;;;;;;23.57;8.07;;;4.50;99.90;;;;;;6214477;23;20160;-72
2023/01/31 03:48:44;;;;;;;26.50;8.13;;;4.40;99.90;;;;;;6212913;23;20147;-73
2023/01/31 03:51:17;;;;;;;15.43;7.53;;;4.40;99.90;;;;;;6213067;23;20622;-73
2023/01/31 03:53:57;;;;;;;24.63;7.50;;;4.40;99.90;;;;;;6212882;23;20171;-74
2023/01/31 03:56:55;;;;;;;17.73;7.43;;;4.60;99.90;;;;;;6212575;23;20147;-72
2023/01/31 03:59:26;;;;;;;21.37;7.83;;;4.70;99.90;;;;;;6213644;23;20602;-73
2023/01/31 04:01:57;;;;;;;20.80;6.67;;;4.70;99.90;;;;;;6212476;23;20136;-73
2023/01/31 04:04:29;;;;;;;19.77;7.57;;;4.60;99.90;;;;;;6214302;23;20153;-73
2023/01/31 04:06:55;;;;;;;19.57;6.60;;;4.50;99.90;;;;;;6214497;23;20508;-73
2023/01/31 04:09:20;;;;;;;20.97;7.67;;;4.50;99.90;;;;;;6212780;23;20164;-72
2023/01/31 04:11:48;;;;;;;22.00;7.10;;;4.50;99.90;;;;;;6214292;23;20135;-73
2023/01/31 04:14:14;;;;;;;19.20;7.70;;;4.60;99.90;;;;;;6212867;23;20152;-73
2023/01/31 04:16:40;;;;;;;17.47;7.00;;;4.50;99.90;;;;;;6213909;23;20140;-73
2023/01/31 04:19:05;;;;;;;17.37;7.53;;;4.50;99.90;;;;;;6214285;23;20137;-72
2023/01/31 04:21:31;;;;;;;20.70;8.03;;;4.60;99.90;;;;;;6214237;23;20132;-73
2023/01/31 04:23:57;;;;;;;21.60;6.57;;;4.70;99.90;;;;;;6214133;23;20164;-73
2023/01/31 04:26:22;;;;;;;26.13;7.13;;;4.50;99.90;;;;;;6214004;23;20211;-73
2023/01/31 04:28:49;;;;;;;23.43;7.07;;;4.40;99.90;;;;;;6213923;23;20135;-73
2023/01/31 04:31:14;;;;;;;23.50;8.10;;;4.50;99.90;;;;;;6212935;23;20578;-74
2023/01/31 04:33:40;;;;;;;18.83;7.63;;;4.30;99.90;;;;;;6216077;23;20133;-74
2023/01/31 04:36:07;;;;;;;19.43;6.30;;;4.50;99.90;;;;;;6216271;23;20177;-74
2023/01/31 04:38:32;;;;;;;30.70;7.83;;;4.50;99.90;;;;;;6216175;23;20152;-74
2023/01/31 04:40:58;;;;;;;25.40;7.23;;;4.50;99.90;;;;;;6215811;23;20566;-74
2023/01/31 04:43:24;;;;;;;20.03;6.70;;;4.50;99.90;;;;;;6214288;23;20148;-73
2023/01/31 04:45:50;;;;;;;18.73;6.33;;;4.50;99.90;;;;;;6214309;23;20176;-74
2023/01/31 04:48:16;;;;;;;17.67;6.20;;;4.50;99.90;;;;;;6215875;23;20550;-74
2023/01/31 04:50:42;;;;;;;22.60;7.27;;;4.40;99.90;;;;;;6215844;23;20157;-74
2023/01/31 04:53:08;;;;;;;19.17;6.17;;;4.30;99.90;;;;;;6215530;23;20608;-74
2023/01/31 04:55:34;;;;;;;23.83;6.67;;;4.30;99.90;;;;;;6215461;23;20141;-74
2023/01/31 04:58:00;;;;;;;21.20;6.83;;;4.60;99.90;;;;;;6214044;23;20453;-74
2023/01/31 05:00:27;;;;;;;18.13;5.90;;;4.80;99.90;;;;;;6215783;23;20638;-74
2023/01/31 05:02:53;;;;;;;24.17;5.70;;;4.70;99.90;;;;;;6215759;23;20147;-74
2023/01/31 05:05:20;;;;;;;15.20;6.33;;;4.50;99.90;;;;;;6215705;23;20164;-74
2023/01/31 05:07:46;;;;;;;16.87;5.57;;;4.40;99.90;;;;;;6215719;23;20258;-74
2023/01/31 05:10:12;;;;;;;18.27;5.53;;;4.40;99.90;;;;;;6215320;23;20128;-74
2023/01/31 05:12:38;;;;;;;12.47;5.50;;;4.40;99.90;;;;;;6214097;23;20575;-74
2023/01/31 05:15:10;;;;;;;24.33;6.63;;;4.40;99.90;;;;;;6215501;23;20148;-74
2023/01/31 05:17:36;;;;;;;21.17;5.77;;;4.50;99.90;;;;;;6215679;23;20167;-73
2023/01/31 05:20:02;;;;;;;20.60;5.97;;;4.40;99.90;;;;;;6215410;23;20133;-73
2023/01/31 05:22:28;;;;;;;16.97;5.17;;;4.30;99.90;;;;;;6215749;23;20463;-73
2023/01/31 05:24:54;;;;;;;17.63;5.30;;;4.40;99.90;;;;;;6215242;23;20132;-74
2023/01/31 05:27:20;;;;;;;22.00;5.77;;;4.30;99.90;;;;;;6215587;23;20139;-79
2023/01/31 05:29:46;;;;;;;15.87;5.43;;;4.20;99.90;;;;;;6213900;23;20223;-76
2023/01/31 05:32:13;;;;;;;17.47;5.20;;;4.30;99.90;;;;;;6215579;23;20148;-76
2023/01/31 05:34:39;;;;;;;18.10;5.17;;;4.40;99.90;;;;;;6213919;23;20491;-76
2023/01/31 05:37:04;;;;;;;20.07;6.33;;;4.60;99.90;;;;;;6215501;23;20160;-76
2023/01/31 05:39:30;;;;;;;13.33;5.33;;;4.70;99.90;;;;;;6213580;23;20148;-76
2023/01/31 05:41:57;;;;;;;17.03;5.53;;;4.80;99.90;;;;;;6215351;23;20136;-76
2023/01/31 05:44:23;;;;;;;15.70;5.43;;;4.70;99.90;;;;;;6216016;23;20158;-76
2023/01/31 05:46:54;;;;;;;25.67;6.00;;;4.60;99.90;;;;;;6214044;23;20570;-76
2023/01/31 05:49:20;;;;;;;17.43;5.83;;;4.80;99.90;;;;;;6215876;23;20152;-76
2023/01/31 05:51:47;;;;;;;18.93;6.10;;;4.90;99.90;;;;;;6216089;23;20163;-76
2023/01/31 05:54:19;;;;;;;17.57;5.03;;;4.90;99.90;;;;;;6215791;23;20129;-76
2023/01/31 05:56:47;;;;;;;11.93;5.23;;;4.80;99.90;;;;;;6216040;23;20136;-75
2023/01/31 05:59:15;;;;;;;15.40;5.37;;;4.70;99.90;;;;;;6216203;23;20136;-75
2023/01/31 06:01:43;;;;;;;18.67;5.77;;;4.40;99.90;;;;;;6214466;23;20155;-75
2023/01/31 06:04:09;;;;;;;22.93;6.00;;;4.50;99.90;;;;;;6214128;23;20156;-75
2023/01/31 06:06:41;;;;;;;18.17;4.83;;;4.60;99.90;;;;;;6215475;23;20168;-75
2023/01/31 06:09:10;;;;;;;22.17;5.20;;;4.80;99.90;;;;;;6213590;23;20144;-75
2023/01/31 06:11:37;;;;;;;13.83;5.10;;;4.90;99.90;;;;;;6213914;23;20174;-74
2023/01/31 06:14:05;;;;;;;21.77;6.10;;;4.90;99.90;;;;;;6215553;23;20132;-75
2023/01/31 06:16:31;;;;;;;17.57;5.50;;;4.90;99.90;;;;;;6215459;23;20458;-75
2023/01/31 06:18:57;;;;;;;18.93;6.37;;;4.90;99.90;;;;;;6215445;23;20147;-76
2023/01/31 06:21:23;;;;;;;19.73;5.43;;;4.80;99.90;;;;;;6215740;23;20141;-75
2023/01/31 06:23:48;;;;;;;15.80;4.90;;;4.70;99.90;;;;;;6213732;23;20148;-75
2023/01/31 06:26:21;;;;;;;25.40;5.57;;;4.60;99.90;;;;;;6215534;23;20486;-76
2023/01/31 06:28:49;;;;;;;17.17;5.87;;;4.50;99.90;;;;;;6215296;23;20274;-76
2023/01/31 06:31:16;;;;;;;19.03;5.97;;;4.60;99.90;;;;;;6215469;23;20160;-76
2023/01/31 06:33:43;;;;;;;22.37;5.57;;;4.70;99.90;;;;;;6214164;23;20149;-76
2023/01/31 06:36:15;;;;;;;17.10;5.00;;;4.70;99.90;;;;;;6215930;23;20152;-78
2023/01/31 06:38:41;;;;;;;17.60;5.40;;;4.70;99.90;;;;;;6213751;23;20145;-75
2023/01/31 06:41:20;;;;;;;16.80;5.17;;;4.90;99.90;;;;;;6215657;23;20441;-75
2023/01/31 06:43:51;;;;;;;16.53;5.37;;;5.00;99.90;;;;;;6214200;23;20144;-75
2023/01/31 06:46:19;;;;;;;21.23;6.27;;;5.00;99.90;;;;;;6215333;23;20179;-75
2023/01/31 06:48:44;;;;;;;16.63;5.30;;;4.90;99.90;;;;;;6214186;23;20155;-76
2023/01/31 06:51:10;;;;;;;16.83;5.27;;;4.80;99.90;;;;;;6212875;23;20240;-76
2023/01/31 06:53:36;;;;;;;21.33;5.63;;;4.80;99.90;;;;;;6214563;23;20153;-75
2023/01/31 06:56:01;;;;;;;20.67;5.10;;;4.70;99.90;;;;;;6212927;23;20234;-76
2023/01/31 06:58:28;;;;;;;17.23;5.10;;;4.80;99.90;;;;;;6213111;23;20220;-76
2023/01/31 07:00:53;;;;;;;20.77;6.23;;;5.00;99.90;;;;;;6214969;23;20270;-77
2023/01/31 07:03:19;;;;;;;16.30;4.60;;;5.00;99.90;;;;;;6213072;23;20172;-77
2023/01/31 07:05:46;;;;;;;14.10;5.00;;;5.00;99.90;;;;;;6213430;23;20253;-76
2023/01/31 07:08:13;;;;;;;21.90;6.47;;;5.00;99.90;;;;;;6215239;23;20130;-77
2023/01/31 07:10:38;;;;;;;19.27;5.70;;;5.00;99.90;;;;;;6213557;23;20167;-78
2023/01/31 07:13:04;;;;;;;18.83;5.50;;;5.10;99.90;;;;;;6215053;23;20144;-78
2023/01/31 07:15:30;;;;;;;15.10;5.63;;;5.10;99.90;;;;;;6215221;23;20132;-77
2023/01/31 07:17:59;;;;;;;18.77;5.63;;;5.00;99.90;;;;;;6213418;23;20524;-78
2023/01/31 07:20:25;;;;;;;18.77;5.10;;;5.10;99.90;;;;;;6214964;23;20132;-75
2023/01/31 07:22:56;;;;;;;19.03;5.07;;;5.20;99.90;;;;;;6213352;23;20154;-75
2023/01/31 07:25:22;;;;;;;15.40;5.33;;;5.30;99.90;;;;;;6213413;23;20175;-75
2023/01/31 07:27:48;;;;;;;19.33;4.97;;;5.30;99.90;;;;;;6213552;23;20157;-75
2023/01/31 07:30:14;;;;;;;17.93;5.90;;;5.20;99.90;;;;;;6213347;23;20148;-74
2023/01/31 07:32:39;;;;;;;16.33;4.97;;;5.20;99.90;;;;;;6214751;23;20141;-74
2023/01/31 07:35:05;;;;;;;20.53;6.40;;;5.30;99.90;;;;;;6212843;23;20160;-76
2023/01/31 07:37:31;;;;;;;20.10;5.17;;;5.50;99.90;;;;;;6213060;23;20525;-75
2023/01/31 07:39:59;;;;;;;14.40;4.90;;;5.50;99.90;;;;;;6214861;23;20430;-74
2023/01/31 07:42:24;;;;;;;13.20;4.00;;;5.60;99.90;;;;;;6214671;23;20222;-74
2023/01/31 07:44:50;;;;;;;17.30;5.77;;;5.60;99.90;;;;;;6214582;23;20565;-74
2023/01/31 07:47:16;;;;;;;20.07;6.53;;;5.60;99.90;;;;;;6213230;23;20195;-74
2023/01/31 07:49:41;;;;;;;23.77;5.23;;;5.60;99.90;;;;;;6212804;23;20144;-74
2023/01/31 07:52:07;;;;;;;11.93;4.53;;;5.70;99.90;;;;;;6213243;23;20234;-74
2023/01/31 07:54:33;;;;;;;16.13;4.90;;;5.40;99.90;;;;;;6214641;23;20133;-74
2023/01/31 07:56:58;;;;;;;17.97;5.30;;;5.50;99.90;;;;;;6213290;23;20167;-74
2023/01/31 07:59:24;;;;;;;15.70;4.67;;;5.60;99.90;;;;;;6214565;23;20463;-74
2023/01/31 08:04:37;;;;;;;13.83;4.43;;;5.50;99.90;;;;;;6214686;23;20147;-73
2023/01/31 08:07:05;;;;;;;21.37;5.40;;;5.40;99.90;;;;;;6214178;23;20198;-73
2023/01/31 08:09:31;;;;;;;15.67;4.40;;;5.40;99.90;;;;;;6215192;23;20140;-73
2023/01/31 08:11:57;;;;;;;18.37;5.53;;;5.50;99.90;;;;;;6216448;23;20191;-74
2023/01/31 08:14:25;;;;;;;17.30;5.20;;;5.50;99.90;;;;;;6215141;23;20164;-73
2023/01/31 08:16:51;;;;;;;20.37;5.07;;;5.60;99.90;;;;;;6215676;23;20151;-78
2023/01/31 08:19:18;;;;;;;24.43;5.30;;;5.90;99.90;;;;;;6216805;23;20580;-77
2023/01/31 08:21:44;;;;;;;19.33;4.50;;;5.60;99.90;;;;;;6215481;23;20470;-79
2023/01/31 08:24:09;;;;;;;11.87;4.97;;;5.50;99.90;;;;;;6216571;23;20140;-77
2023/01/31 08:26:35;;;;;;;20.10;5.37;;;5.60;99.90;;;;;;6215165;23;20175;-78
2023/01/31 08:29:00;;;;;;;17.43;4.53;;;5.70;99.90;;;;;;6215421;23;20137;-78
2023/01/31 08:31:27;;;;;;;11.73;4.03;;;5.70;99.90;;;;;;6216116;23;20571;-78
2023/01/31 08:33:56;;;;;;;14.90;4.90;;;5.70;99.90;;;;;;6217293;23;20460;-78
2023/01/31 08:36:26;;;;;;;15.63;4.87;;;5.80;99.90;;;;;;6216378;23;20144;-78
2023/01/31 08:38:52;;;;;;;17.53;4.17;;;5.80;99.90;;;;;;6215841;23;20160;-79
2023/01/31 08:41:20;;;;;;;13.30;4.30;;;5.90;99.90;;;;;;6217779;23;20144;-78
2023/01/31 08:43:49;;;;;;;14.23;5.47;;;5.90;99.90;;;;;;6217387;23;20132;-79
2023/01/31 08:46:15;;;;;;;20.30;4.57;;;5.90;99.90;;;;;;6215426;23;20173;-79
2023/01/31 08:48:43;;;;;;;18.57;4.40;;;6.10;99.90;;;;;;6216913;23;20169;-79
2023/01/31 08:51:11;;;;;;;14.93;5.00;;;6.30;99.90;;;;;;6217700;23;20163;-78
2023/01/31 08:53:43;;;;;;;17.60;5.27;;;6.20;99.90;;;;;;6215223;23;20153;-76
2023/01/31 08:56:10;;;;;;;17.87;5.47;;;6.10;99.90;;;;;;6216407;23;20135;-76
2023/01/31 08:58:37;;;;;;;15.13;4.97;;;6.20;99.90;;;;;;6214743;23;20531;-75
2023/01/31 09:01:13;;;;;;;16.80;4.97;;;6.40;99.90;;;;;;6214533;23;20158;-76
2023/01/31 09:03:39;;;;;;;15.83;4.27;;;6.40;99.90;;;;;;6215985;23;20661;-76
2023/01/31 09:06:09;;;;;;;19.50;4.77;;;6.10;99.90;;;;;;6214380;23;20243;-75
2023/01/31 09:08:34;;;;;;;15.83;5.17;;;6.20;99.90;;;;;;6214902;23;20485;-76
2023/01/31 09:11:00;;;;;;;14.63;4.07;;;6.40;99.90;;;;;;6214842;23;20232;-76
2023/01/31 09:13:27;;;;;;;14.30;4.43;;;6.30;99.90;;;;;;6216585;23;20131;-76
2023/01/31 09:16:05;;;;;;;15.43;4.10;;;6.20;99.90;;;;;;6216215;23;20145;-75
2023/01/31 09:18:33;;;;;;;12.07;3.97;;;6.30;99.90;;;;;;6214387;23;20584;-76
2023/01/31 09:21:10;;;;;;;13.63;5.20;;;6.40;99.90;;;;;;6214572;23;20149;-76
2023/01/31 09:23:37;;;;;;;19.90;4.57;;;6.70;99.90;;;;;;6215060;23;20151;-75
2023/01/31 09:26:04;;;;;;;19.80;5.77;;;6.60;99.90;;;;;;6216009;23;20169;-77
2023/01/31 09:28:30;;;;;;;19.17;4.43;;;6.80;99.90;;;;;;6214684;23;20145;-76
2023/01/31 09:31:05;;;;;;;19.80;5.00;;;7.00;99.90;;;;;;6214544;23;20227;-76
2023/01/31 09:33:32;;;;;;;19.40;4.40;;;7.00;99.90;;;;;;6216472;23;20439;-76
2023/01/31 09:36:06;;;;;;;15.03;4.60;;;7.00;99.90;;;;;;6214530;23;20154;-76
2023/01/31 09:38:32;;;;;;;16.60;3.77;;;7.00;99.90;;;;;;6214964;23;20233;-75
2023/01/31 09:41:02;;;;;;;15.83;5.03;;;7.00;99.90;;;;;;6216199;23;20190;-76
2023/01/31 09:43:38;;;;;;;14.43;4.00;;;7.10;99.90;;;;;;6216238;23;20154;-76
2023/01/31 09:46:08;;;;;;;15.20;4.57;;;7.10;99.90;;;;;;6214071;23;20168;-76
2023/01/31 09:48:38;;;;;;;20.87;4.77;;;6.90;99.90;;;;;;6214265;23;20146;-76
2023/01/31 09:51:05;;;;;;;17.63;4.33;;;6.90;99.90;;;;;;6213863;23;20488;-76
2023/01/31 09:53:36;;;;;;;15.73;5.10;;;6.90;99.90;;;;;;6216064;23;20146;-76
2023/01/31 09:56:31;;;;;;;13.80;4.20;;;7.00;99.90;;;;;;6213869;23;20141;-76
2023/01/31 09:59:11;;;;;;;18.70;5.37;;;7.10;99.90;;;;;;6215708;23;20173;-77
2023/01/31 10:02:15;;;;;;;16.17;4.90;;;7.20;99.90;;;;;;6214234;23;20154;-76
2023/01/31 10:05:00;;;;;;;14.47;4.47;;;7.20;99.90;;;;;;6213897;23;20159;-76
2023/01/31 10:07:37;;;;;;;14.70;4.50;;;7.20;99.90;;;;;;6215872;23;20483;-76
2023/01/31 10:10:36;;;;;;;15.83;4.43;;;7.10;99.90;;;;;;6215592;23;20180;-76
2023/01/31 10:13:15;;;;;;;20.53;4.80;;;7.20;99.90;;;;;;6214746;23;20149;-76
2023/01/31 10:15:46;;;;;;;10.90;4.87;;;7.20;99.90;;;;;;6215518;23;20586;-76
2023/01/31 10:18:20;;;;;;;16.40;4.60;;;7.20;99.90;;;;;;6215619;23;20633;-76
2023/01/31 10:21:04;;;;;;;14.80;5.10;;;7.10;99.90;;;;;;6214121;23;20143;-76
2023/01/31 10:23:54;;;;;;;12.87;4.93;;;7.20;99.90;;;;;;6214679;23;20142;-76
2023/01/31 10:26:28;;;;;;;13.73;4.37;;;7.40;99.90;;;;;;6215350;23;20213;-77
2023/01/31 10:29:14;;;;;;;19.97;4.83;;;7.40;99.90;;;;;;6215451;23;20549;-76
2023/01/31 10:31:57;;;;;;;14.50;4.93;;;7.30;99.90;;;;;;6214344;23;20148;-76
2023/01/31 10:34:29;;;;;;;21.83;4.60;;;7.40;99.90;;;;;;6215287;23;20131;-77
2023/01/31 10:37:13;;;;;;;14.20;4.83;;;7.40;99.90;;;;;;6215657;23;20159;-76
2023/01/31 10:39:53;;;;;;;15.33;4.93;;;7.40;99.90;;;;;;6215222;23;20143;-75
2023/01/31 10:42:37;;;;;;;18.73;4.90;;;7.30;99.90;;;;;;6213503;23;20602;-75
2023/01/31 10:45:16;;;;;;;16.03;4.47;;;7.60;99.90;;;;;;6214963;23;20559;-75
2023/01/31 10:48:03;;;;;;;17.70;5.13;;;7.80;99.90;;;;;;6215018;23;20130;-75
2023/01/31 10:50:57;;;;;;;13.90;4.83;;;7.90;99.90;;;;;;6215051;23;20230;-76
2023/01/31 10:53:28;;;;;;;15.97;5.83;;;7.70;99.90;;;;;;6213832;23;20147;-75
2023/01/31 10:56:05;;;;;;;18.23;4.57;;;8.00;99.90;;;;;;6213312;23;20177;-77
2023/01/31 10:58:32;;;;;;;18.20;4.67;;;8.00;99.90;;;;;;6214998;23;20135;-76
2023/01/31 11:00:59;;;;;;;14.10;5.30;;;8.00;99.90;;;;;;6215306;23;20138;-76
2023/01/31 11:03:25;;;;;;;13.43;4.40;;;8.10;99.90;;;;;;6213582;23;20584;-76
2023/01/31 11:05:55;;;;;;;18.80;5.20;;;8.20;99.90;;;;;;6213318;23;20174;-76
2023/01/31 11:08:34;;;;;;;11.57;4.83;;;8.30;99.90;;;;;;6214953;23;20151;-76
2023/01/31 11:11:09;;;;;;;19.07;4.80;;;8.40;99.90;;;;;;6215179;23;20168;-76
2023/01/31 11:13:35;;;;;;;13.03;4.83;;;8.40;99.90;;;;;;6214577;23;20476;-75
2023/01/31 11:16:03;;;;;;;14.73;5.23;;;8.30;99.90;;;;;;6214989;23;20240;-75
2023/01/31 11:18:42;;;;;;;17.13;4.77;;;8.20;99.90;;;;;;6213263;23;20162;-76
2023/01/31 11:21:17;;;;;;;15.43;4.67;;;8.30;99.90;;;;;;6214850;23;20169;-76
2023/01/31 11:23:44;;;;;;;14.27;4.57;;;8.40;99.90;;;;;;6213034;23;20144;-76
2023/01/31 11:26:14;;;;;;;18.80;5.27;;;8.30;99.90;;;;;;6212970;23;20199;-76
2023/01/31 11:28:40;;;;;;;21.20;5.80;;;8.40;99.90;;;;;;6213001;23;20491;-75
2023/01/31 11:31:23;;;;;;;16.50;4.67;;;8.50;99.90;;;;;;6214945;23;20621;-76
2023/01/31 11:33:58;;;;;;;16.67;4.80;;;8.60;99.90;;;;;;6213024;23;20214;-76
2023/01/31 11:36:31;;;;;;;14.27;4.70;;;8.70;99.90;;;;;;6213130;23;20150;-76
2023/01/31 11:38:58;;;;;;;13.17;5.17;;;8.80;99.90;;;;;;6214796;23;20139;-76
2023/01/31 11:41:36;;;;;;;15.20;5.17;;;8.90;99.90;;;;;;6213892;23;20182;-76
2023/01/31 11:44:17;;;;;;;17.07;4.50;;;8.80;99.90;;;;;;6212991;23;20230;-76
2023/01/31 11:46:52;;;;;;;19.60;5.83;;;8.90;99.90;;;;;;6214531;23;20165;-77
2023/01/31 11:49:40;;;;;;;14.17;4.43;;;8.70;99.90;;;;;;6215042;23;20204;-77
2023/01/31 11:52:15;;;;;;;16.30;5.20;;;8.60;99.90;;;;;;6214050;23;20209;-75
2023/01/31 11:54:55;;;;;;;18.03;5.73;;;8.60;99.90;;;;;;6213621;23;20484;-76
2023/01/31 11:57:27;;;;;;;13.67;5.67;;;8.70;99.90;;;;;;6213471;23;20146;-76
2023/01/31 11:59:56;;;;;;;16.57;6.03;;;8.60;99.90;;;;;;6215469;23;20138;-76
2023/01/31 12:02:40;;;;;;;16.17;5.80;;;8.70;99.90;;;;;;6215307;23;20556;-76
2023/01/31 12:05:13;;;;;;;16.07;4.70;;;8.60;99.90;;;;;;6215287;23;20133;-75
2023/01/31 12:07:52;;;;;;;19.77;6.00;;;8.70;99.90;;;;;;6213777;23;20185;-76
2023/01/31 12:10:48;;;;;;;13.47;5.07;;;8.80;99.90;;;;;;6213653;23;20610;-76
2023/01/31 12:13:19;;;;;;;19.67;5.37;;;8.90;99.90;;;;;;6220349;23;20581;-76
2023/01/31 12:15:51;;;;;;;13.00;5.17;;;9.00;99.90;;;;;;6215675;23;20136;-76
2023/01/31 12:18:44;;;;;;;15.63;4.97;;;8.90;99.90;;;;;;6213745;23;20154;-77
2023/01/31 12:21:15;;;;;;;18.30;5.70;;;8.90;99.90;;;;;;6226157;23;20572;-76
2023/01/31 12:24:02;;;;;;;19.10;5.90;;;8.70;99.90;;;;;;6214509;23;20160;-77
2023/01/31 12:26:48;;;;;;;24.47;5.70;;;8.70;99.90;;;;;;6212394;23;20544;-77
2023/01/31 12:29:37;;;;;;;12.93;4.63;;;8.60;99.90;;;;;;6237163;23;20157;-77
2023/01/31 12:32:21;;;;;;;19.23;5.43;;;8.40;99.90;;;;;;6214539;23;20572;-77
2023/01/31 12:34:50;;;;;;;19.40;5.27;;;8.60;99.90;;;;;;6215021;23;20127;-77
2023/01/31 12:37:56;;;;;;;17.80;5.07;;;8.60;99.90;;;;;;6213527;23;20173;-77
2023/01/31 12:40:48;;;;;;;17.77;5.23;;;8.70;99.90;;;;;;6212960;23;20487;-77
2023/01/31 12:43:51;;;;;;;15.67;5.17;;;8.70;99.90;;;;;;6196375;23;20159;-76
2023/01/31 12:46:28;;;;;;;16.10;5.23;;;8.80;99.90;;;;;;6215070;23;20209;-76
2023/01/31 12:49:29;;;;;;;19.10;5.63;;;8.60;99.90;;;;;;6215735;23;20160;-76
2023/01/31 12:52:45;;;;;;;19.57;5.73;;;8.60;99.90;;;;;;6182516;23;20175;-77
2023/01/31 12:55:34;;;;;;;18.00;6.17;;;8.70;99.90;;;;;;6202093;23;20150;-76
2023/01/31 12:58:21;;;;;;;19.63;5.50;;;8.60;99.90;;;;;;6215651;23;20147;-76
2023/01/31 13:00:54;;;;;;;16.87;5.93;;;8.60;99.90;;;;;;6217006;23;20164;-75
2023/01/31 13:03:35;;;;;;;24.40;6.00;;;8.60;99.90;;;;;;6214446;23;20463;-77
2023/01/31 13:06:09;;;;;;;14.23;6.37;;;8.40;99.90;;;;;;6216092;23;20213;-76
2023/01/31 13:08:38;;;;;;;15.63;5.80;;;8.40;99.90;;;;;;6214490;23;20151;-76
2023/01/31 13:11:17;;;;;;;23.77;6.30;;;8.20;99.90;;;;;;6214583;23;20648;-76
2023/01/31 13:13:43;;;;;;;25.33;7.73;;;8.20;99.90;;;;;;6214757;23;20597;-76
2023/01/31 13:16:19;;;;;;;18.93;7.40;;;8.30;99.90;;;;;;6216121;23;20133;-76
2023/01/31 13:18:48;;;;;;;16.40;5.60;;;8.30;99.90;;;;;;6216201;23;20575;-75